Terminal Aerodrome Forecast
Issued by NWS Twin Cities, MN

Home | Current Version | Previous Version | Text Only | Print | Product List | Glossary Off
Versions: 1 2 3 4 5 6 7 8 9 10 11 12 13 14 15 16 17 18 19 20 21 22 23 24 25 26 27

000
FTUS43 KMPX 112300
TAFMSP
TAF
KMSP 112334Z 1200/1306 23006KT P6SM VCSH BKN035
     FM120200 19005KT P6SM SCT040
     FM120800 29004KT 5SM BR FEW005 SCT040
      TEMPO 1209/1213 2SM BR SCT005
     FM121300 31005KT P6SM SCT040 BKN120
     FM121700 30007KT P6SM VCSH BKN050 OVC100
     FM130000 30009KT P6SM SCT050 BKN100=

USA.gov is the U.S. government's official web portal to all federal, state and local government web resources and services.